sensor_id;sensor_type;location;lat;lon;timestamp;temperature;humidity
23323;DHT22;11833;52.554;13.554;2024-02-15T00:02:15;8.90;99.90
23323;DHT22;11833;52.554;13.554;2024-02-15T00:04:41;8.90;99.90
23323;DHT22;11833;52.554;13.554;2024-02-15T00:07:08;8.90;99.90
23323;DHT22;11833;52.554;13.554;2024-02-15T00:09:34;8.90;99.90
23323;DHT22;11833;52.554;13.554;2024-02-15T00:11:59;8.90;99.90
23323;DHT22;11833;52.554;13.554;2024-02-15T00:14:26;8.90;99.90
23323;DHT22;11833;52.554;13.554;2024-02-15T00:16:53;8.90;99.90
23323;DHT22;11833;52.554;13.554;2024-02-15T00:19:19;8.90;99.90
23323;DHT22;11833;52.554;13.554;2024-02-15T00:21:44;8.90;99.90
23323;DHT22;11833;52.554;13.554;2024-02-15T00:24:11;8.90;99.90
23323;DHT22;11833;52.554;13.554;2024-02-15T00:26:36;8.90;99.90
23323;DHT22;11833;52.554;13.554;2024-02-15T00:29:03;8.80;99.90
23323;DHT22;11833;52.554;13.554;2024-02-15T00:31:29;8.80;99.90
23323;DHT22;11833;52.554;13.554;2024-02-15T00:33:55;8.90;99.90
23323;DHT22;11833;52.554;13.554;2024-02-15T00:36:21;8.90;99.90
23323;DHT22;11833;52.554;13.554;2024-02-15T00:38:46;8.90;99.90
23323;DHT22;11833;52.554;13.554;2024-02-15T00:41:12;8.90;99.90
23323;DHT22;11833;52.554;13.554;2024-02-15T00:43:38;8.90;99.90
23323;DHT22;11833;52.554;13.554;2024-02-15T00:46:04;8.90;99.90
23323;DHT22;11833;52.554;13.554;2024-02-15T00:48:30;8.90;99.90
23323;DHT22;11833;52.554;13.554;2024-02-15T00:50:56;8.90;99.90
23323;DHT22;11833;52.554;13.554;2024-02-15T00:53:23;9.00;99.90
23323;DHT22;11833;52.554;13.554;2024-02-15T00:55:49;9.00;99.90
23323;DHT22;11833;52.554;13.554;2024-02-15T00:58:14;9.00;99.90
23323;DHT22;11833;52.554;13.554;2024-02-15T01:00:40;9.00;99.90
23323;DHT22;11833;52.554;13.554;2024-02-15T01:03:06;9.00;99.90
23323;DHT22;11833;52.554;13.554;2024-02-15T01:05:32;9.10;99.90
23323;DHT22;11833;52.554;13.554;2024-02-15T01:07:59;9.00;99.90
23323;DHT22;11833;52.554;13.554;2024-02-15T01:10:24;9.00;99.90
23323;DHT22;11833;52.554;13.554;2024-02-15T01:12:52;9.00;99.90
23323;DHT22;11833;52.554;13.554;2024-02-15T01:15:18;9.10;99.90
23323;DHT22;11833;52.554;13.554;2024-02-15T01:17:45;9.00;99.90
23323;DHT22;11833;52.554;13.554;2024-02-15T01:20:11;9.00;99.90
23323;DHT22;11833;52.554;13.554;2024-02-15T01:22:37;9.00;99.90
23323;DHT22;11833;52.554;13.554;2024-02-15T01:25:04;9.00;99.90
23323;DHT22;11833;52.554;13.554;2024-02-15T01:27:29;9.00;99.90
23323;DHT22;11833;52.554;13.554;2024-02-15T01:29:58;9.00;99.90
23323;DHT22;11833;52.554;13.554;2024-02-15T01:32:24;9.00;99.90
23323;DHT22;11833;52.554;13.554;2024-02-15T01:34:51;9.00;99.90
23323;DHT22;11833;52.554;13.554;2024-02-15T01:37:19;9.00;99.90
23323;DHT22;11833;52.554;13.554;2024-02-15T01:39:46;9.00;99.90
23323;DHT22;11833;52.554;13.554;2024-02-15T01:42:12;9.00;99.90
23323;DHT22;11833;52.554;13.554;2024-02-15T01:44:40;9.00;99.90
23323;DHT22;11833;52.554;13.554;2024-02-15T01:47:06;9.00;99.90
23323;DHT22;11833;52.554;13.554;2024-02-15T01:49:34;9.00;99.90
23323;DHT22;11833;52.554;13.554;2024-02-15T01:52:00;9.00;99.90
23323;DHT22;11833;52.554;13.554;2024-02-15T01:54:28;9.00;99.90
23323;DHT22;11833;52.554;13.554;2024-02-15T01:56:54;9.00;99.90
23323;DHT22;11833;52.554;13.554;2024-02-15T01:59:22;9.00;99.90
23323;DHT22;11833;52.554;13.554;2024-02-15T02:01:48;9.00;99.90
23323;DHT22;11833;52.554;13.554;2024-02-15T02:04:15;9.00;99.90
23323;DHT22;11833;52.554;13.554;2024-02-15T02:06:41;9.00;99.90
23323;DHT22;11833;52.554;13.554;2024-02-15T02:09:16;9.00;99.90
23323;DHT22;11833;52.554;13.554;2024-02-15T02:11:45;9.00;99.90
23323;DHT22;11833;52.554;13.554;2024-02-15T02:14:12;9.10;99.90
23323;DHT22;11833;52.554;13.554;2024-02-15T02:16:37;9.00;99.90
23323;DHT22;11833;52.554;13.554;2024-02-15T02:19:05;9.10;99.90
23323;DHT22;11833;52.554;13.554;2024-02-15T02:21:34;9.10;99.90
23323;DHT22;11833;52.554;13.554;2024-02-15T02:24:03;9.10;99.90
23323;DHT22;11833;52.554;13.554;2024-02-15T02:26:33;9.10;99.90
23323;DHT22;11833;52.554;13.554;2024-02-15T02:29:02;9.10;99.90
23323;DHT22;11833;52.554;13.554;2024-02-15T02:31:36;9.00;99.90
23323;DHT22;11833;52.554;13.554;2024-02-15T02:34:02;9.00;99.90
23323;DHT22;11833;52.554;13.554;2024-02-15T02:36:28;9.00;99.90
23323;DHT22;11833;52.554;13.554;2024-02-15T02:38:55;9.00;99.90
23323;DHT22;11833;52.554;13.554;2024-02-15T02:41:26;9.00;99.90
23323;DHT22;11833;52.554;13.554;2024-02-15T02:43:56;9.00;99.90
23323;DHT22;11833;52.554;13.554;2024-02-15T02:46:22;9.00;99.90
23323;DHT22;11833;52.554;13.554;2024-02-15T02:48:48;9.00;99.90
23323;DHT22;11833;52.554;13.554;2024-02-15T02:51:14;9.00;99.90
23323;DHT22;11833;52.554;13.554;2024-02-15T02:53:40;9.00;99.90
23323;DHT22;11833;52.554;13.554;2024-02-15T02:56:06;9.00;99.90
23323;DHT22;11833;52.554;13.554;2024-02-15T02:58:34;9.00;99.90
23323;DHT22;11833;52.554;13.554;2024-02-15T03:01:00;9.00;99.90
23323;DHT22;11833;52.554;13.554;2024-02-15T03:03:26;9.00;99.90
23323;DHT22;11833;52.554;13.554;2024-02-15T03:05:52;9.00;99.90
23323;DHT22;11833;52.554;13.554;2024-02-15T03:08:19;9.00;99.90
23323;DHT22;11833;52.554;13.554;2024-02-15T03:10:46;9.00;99.90
23323;DHT22;11833;52.554;13.554;2024-02-15T03:13:11;9.10;99.90
23323;DHT22;11833;52.554;13.554;2024-02-15T03:15:37;9.00;99.90
23323;DHT22;11833;52.554;13.554;2024-02-15T03:18:03;9.00;99.90
23323;DHT22;11833;52.554;13.554;2024-02-15T03:20:34;9.10;99.90
23323;DHT22;11833;52.554;13.554;2024-02-15T03:23:02;9.10;99.90
23323;DHT22;11833;52.554;13.554;2024-02-15T03:25:29;9.10;99.90
23323;DHT22;11833;52.554;13.554;2024-02-15T03:27:59;9.10;99.90
23323;DHT22;11833;52.554;13.554;2024-02-15T03:30:30;9.10;99.90
23323;DHT22;11833;52.554;13.554;2024-02-15T03:32:58;9.10;99.90
23323;DHT22;11833;52.554;13.554;2024-02-15T03:35:27;9.10;99.90
23323;DHT22;11833;52.554;13.554;2024-02-15T03:37:56;9.10;99.90
23323;DHT22;11833;52.554;13.554;2024-02-15T03:40:23;9.10;99.90
23323;DHT22;11833;52.554;13.554;2024-02-15T03:42:52;9.10;99.90
23323;DHT22;11833;52.554;13.554;2024-02-15T03:45:18;9.10;99.90
23323;DHT22;11833;52.554;13.554;2024-02-15T03:47:44;9.10;99.90
23323;DHT22;11833;52.554;13.554;2024-02-15T03:50:11;9.10;99.90
23323;DHT22;11833;52.554;13.554;2024-02-15T03:52:37;9.10;99.90
23323;DHT22;11833;52.554;13.554;2024-02-15T03:55:04;9.20;99.90
23323;DHT22;11833;52.554;13.554;2024-02-15T03:57:31;9.20;99.90
23323;DHT22;11833;52.554;13.554;2024-02-15T03:59:59;9.20;99.90
23323;DHT22;11833;52.554;13.554;2024-02-15T04:02:26;9.20;99.90
23323;DHT22;11833;52.554;13.554;2024-02-15T04:04:55;9.20;99.90
23323;DHT22;11833;52.554;13.554;2024-02-15T04:07:22;9.20;99.90
23323;DHT22;11833;52.554;13.554;2024-02-15T04:09:52;9.20;99.90
23323;DHT22;11833;52.554;13.554;2024-02-15T04:12:18;9.20;99.90
23323;DHT22;11833;52.554;13.554;2024-02-15T04:14:44;9.10;99.90
23323;DHT22;11833;52.554;13.554;2024-02-15T04:17:11;9.10;99.90
23323;DHT22;11833;52.554;13.554;2024-02-15T04:19:45;9.10;99.90
23323;DHT22;11833;52.554;13.554;2024-02-15T04:22:19;9.10;99.90
23323;DHT22;11833;52.554;13.554;2024-02-15T04:24:45;9.10;99.90
23323;DHT22;11833;52.554;13.554;2024-02-15T04:27:11;9.20;99.90
23323;DHT22;11833;52.554;13.554;2024-02-15T04:29:38;9.10;99.90
23323;DHT22;11833;52.554;13.554;2024-02-15T04:32:07;9.10;99.90
23323;DHT22;11833;52.554;13.554;2024-02-15T04:34:37;9.10;99.90
23323;DHT22;11833;52.554;13.554;2024-02-15T04:37:03;9.10;99.90
23323;DHT22;11833;52.554;13.554;2024-02-15T04:39:36;9.10;99.90
23323;DHT22;11833;52.554;13.554;2024-02-15T04:42:02;9.10;99.90
23323;DHT22;11833;52.554;13.554;2024-02-15T04:44:30;9.10;99.90
23323;DHT22;11833;52.554;13.554;2024-02-15T04:47:00;9.10;99.90
23323;DHT22;11833;52.554;13.554;2024-02-15T04:49:27;9.10;99.90
23323;DHT22;11833;52.554;13.554;2024-02-15T04:51:55;9.10;99.90
23323;DHT22;11833;52.554;13.554;2024-02-15T04:54:22;9.10;99.90
23323;DHT22;11833;52.554;13.554;2024-02-15T04:56:48;9.20;99.90
23323;DHT22;11833;52.554;13.554;2024-02-15T04:59:18;9.10;99.90
23323;DHT22;11833;52.554;13.554;2024-02-15T05:01:45;9.10;99.90
23323;DHT22;11833;52.554;13.554;2024-02-15T05:04:11;9.20;99.90
23323;DHT22;11833;52.554;13.554;2024-02-15T05:06:37;9.20;99.90
23323;DHT22;11833;52.554;13.554;2024-02-15T05:09:04;9.20;99.90
23323;DHT22;11833;52.554;13.554;2024-02-15T05:11:37;9.20;99.90
23323;DHT22;11833;52.554;13.554;2024-02-15T05:14:06;9.20;99.90
23323;DHT22;11833;52.554;13.554;2024-02-15T05:16:33;9.20;99.90
23323;DHT22;11833;52.554;13.554;2024-02-15T05:18:59;9.20;99.90
23323;DHT22;11833;52.554;13.554;2024-02-15T05:21:25;9.20;99.90
23323;DHT22;11833;52.554;13.554;2024-02-15T05:23:51;9.20;99.90
23323;DHT22;11833;52.554;13.554;2024-02-15T05:26:18;9.20;99.90
23323;DHT22;11833;52.554;13.554;2024-02-15T05:28:49;9.20;99.90
23323;DHT22;11833;52.554;13.554;2024-02-15T05:31:19;9.20;99.90
23323;DHT22;11833;52.554;13.554;2024-02-15T05:33:46;9.20;99.90
23323;DHT22;11833;52.554;13.554;2024-02-15T05:36:17;9.20;99.90
23323;DHT22;11833;52.554;13.554;2024-02-15T05:38:47;9.30;99.90
23323;DHT22;11833;52.554;13.554;2024-02-15T05:41:14;9.20;99.90
23323;DHT22;11833;52.554;13.554;2024-02-15T05:43:40;9.30;99.90
23323;DHT22;11833;52.554;13.554;2024-02-15T05:46:10;9.20;99.90
23323;DHT22;11833;52.554;13.554;2024-02-15T05:48:36;9.30;99.90
23323;DHT22;11833;52.554;13.554;2024-02-15T05:51:03;9.30;99.90
23323;DHT22;11833;52.554;13.554;2024-02-15T05:53:31;9.30;99.90
23323;DHT22;11833;52.554;13.554;2024-02-15T05:56:05;9.30;99.90
23323;DHT22;11833;52.554;13.554;2024-02-15T05:58:32;9.30;99.90
23323;DHT22;11833;52.554;13.554;2024-02-15T06:01:03;9.30;99.90
23323;DHT22;11833;52.554;13.554;2024-02-15T06:03:32;9.30;99.90
23323;DHT22;11833;52.554;13.554;2024-02-15T06:06:03;9.30;99.90
23323;DHT22;11833;52.554;13.554;2024-02-15T06:08:35;9.30;99.90
23323;DHT22;11833;52.554;13.554;2024-02-15T06:11:02;9.30;99.90
23323;DHT22;11833;52.554;13.554;2024-02-15T06:13:29;9.30;99.90
23323;DHT22;11833;52.554;13.554;2024-02-15T06:15:55;9.30;99.90
23323;DHT22;11833;52.554;13.554;2024-02-15T06:18:22;9.30;99.90
23323;DHT22;11833;52.554;13.554;2024-02-15T06:20:53;9.40;99.90
23323;DHT22;11833;52.554;13.554;2024-02-15T06:23:19;9.40;99.90
23323;DHT22;11833;52.554;13.554;2024-02-15T06:25:46;9.30;99.90
23323;DHT22;11833;52.554;13.554;2024-02-15T06:28:16;9.40;99.90
23323;DHT22;11833;52.554;13.554;2024-02-15T06:31:05;9.40;99.90
23323;DHT22;11833;52.554;13.554;2024-02-15T06:33:52;9.40;99.90
23323;DHT22;11833;52.554;13.554;2024-02-15T06:36:46;9.40;99.90
23323;DHT22;11833;52.554;13.554;2024-02-15T06:39:32;9.40;99.90
23323;DHT22;11833;52.554;13.554;2024-02-15T06:42:13;9.40;99.90
23323;DHT22;11833;52.554;13.554;2024-02-15T06:44:45;9.40;99.90
23323;DHT22;11833;52.554;13.554;2024-02-15T06:47:12;9.40;99.90
23323;DHT22;11833;52.554;13.554;2024-02-15T06:49:39;9.40;99.90
23323;DHT22;11833;52.554;13.554;2024-02-15T06:52:08;9.50;99.90
23323;DHT22;11833;52.554;13.554;2024-02-15T06:54:35;9.50;99.90
23323;DHT22;11833;52.554;13.554;2024-02-15T06:57:04;9.50;99.90
23323;DHT22;11833;52.554;13.554;2024-02-15T06:59:31;9.50;99.90
23323;DHT22;11833;52.554;13.554;2024-02-15T07:01:58;9.50;99.90
23323;DHT22;11833;52.554;13.554;2024-02-15T07:04:24;9.50;99.90
23323;DHT22;11833;52.554;13.554;2024-02-15T07:06:53;9.50;99.90
23323;DHT22;11833;52.554;13.554;2024-02-15T07:09:22;9.50;99.90
23323;DHT22;11833;52.554;13.554;2024-02-15T07:11:52;9.50;99.90
23323;DHT22;11833;52.554;13.554;2024-02-15T07:14:18;9.50;99.90
23323;DHT22;11833;52.554;13.554;2024-02-15T07:16:48;9.60;99.90
23323;DHT22;11833;52.554;13.554;2024-02-15T07:19:15;9.50;99.90
23323;DHT22;11833;52.554;13.554;2024-02-15T07:21:41;9.60;99.90
23323;DHT22;11833;52.554;13.554;2024-02-15T07:24:07;9.60;99.90
23323;DHT22;11833;52.554;13.554;2024-02-15T07:26:33;9.60;99.90
23323;DHT22;11833;52.554;13.554;2024-02-15T07:29:00;9.60;99.90
23323;DHT22;11833;52.554;13.554;2024-02-15T07:31:29;9.60;99.90
23323;DHT22;11833;52.554;13.554;2024-02-15T07:33:55;9.60;99.90
23323;DHT22;11833;52.554;13.554;2024-02-15T07:36:22;9.60;99.90
23323;DHT22;11833;52.554;13.554;2024-02-15T07:38:52;9.60;99.90
23323;DHT22;11833;52.554;13.554;2024-02-15T07:41:19;9.70;99.90
23323;DHT22;11833;52.554;13.554;2024-02-15T07:43:48;9.70;99.90
23323;DHT22;11833;52.554;13.554;2024-02-15T07:46:14;9.70;99.90
23323;DHT22;11833;52.554;13.554;2024-02-15T07:48:44;9.70;99.90
23323;DHT22;11833;52.554;13.554;2024-02-15T07:51:12;9.80;99.90
23323;DHT22;11833;52.554;13.554;2024-02-15T07:53:43;9.80;99.90
23323;DHT22;11833;52.554;13.554;2024-02-15T07:56:10;9.70;99.90
23323;DHT22;11833;52.554;13.554;2024-02-15T07:58:43;9.70;99.90
23323;DHT22;11833;52.554;13.554;2024-02-15T08:01:14;9.80;99.90
23323;DHT22;11833;52.554;13.554;2024-02-15T08:03:40;9.80;99.90
23323;DHT22;11833;52.554;13.554;2024-02-15T08:06:10;9.80;99.90
23323;DHT22;11833;52.554;13.554;2024-02-15T08:08:45;9.80;99.90
23323;DHT22;11833;52.554;13.554;2024-02-15T08:11:14;9.90;99.90
23323;DHT22;11833;52.554;13.554;2024-02-15T08:13:47;9.90;99.90
23323;DHT22;11833;52.554;13.554;2024-02-15T08:16:23;10.00;99.90
23323;DHT22;11833;52.554;13.554;2024-02-15T08:18:50;10.00;99.90
23323;DHT22;11833;52.554;13.554;2024-02-15T08:21:26;10.00;99.90
23323;DHT22;11833;52.554;13.554;2024-02-15T08:23:58;10.00;99.90
23323;DHT22;11833;52.554;13.554;2024-02-15T08:26:36;10.10;99.90
23323;DHT22;11833;52.554;13.554;2024-02-15T08:29:03;10.10;99.90
23323;DHT22;11833;52.554;13.554;2024-02-15T08:31:30;10.10;99.90
23323;DHT22;11833;52.554;13.554;2024-02-15T08:33:59;10.20;99.90
23323;DHT22;11833;52.554;13.554;2024-02-15T08:36:26;10.20;99.90
23323;DHT22;11833;52.554;13.554;2024-02-15T08:38:51;10.20;99.90
23323;DHT22;11833;52.554;13.554;2024-02-15T08:41:17;10.20;99.90
23323;DHT22;11833;52.554;13.554;2024-02-15T08:43:47;10.20;99.90
23323;DHT22;11833;52.554;13.554;2024-02-15T08:46:15;10.20;99.90
23323;DHT22;11833;52.554;13.554;2024-02-15T08:48:41;10.20;99.90
23323;DHT22;11833;52.554;13.554;2024-02-15T08:51:08;10.40;99.90
23323;DHT22;11833;52.554;13.554;2024-02-15T08:53:35;10.50;99.90
23323;DHT22;11833;52.554;13.554;2024-02-15T08:56:02;10.70;99.90
23323;DHT22;11833;52.554;13.554;2024-02-15T08:58:29;10.70;99.90
23323;DHT22;11833;52.554;13.554;2024-02-15T09:00:58;10.70;99.90
23323;DHT22;11833;52.554;13.554;2024-02-15T09:03:24;10.80;99.90
23323;DHT22;11833;52.554;13.554;2024-02-15T09:05:50;10.90;99.90
23323;DHT22;11833;52.554;13.554;2024-02-15T09:08:16;11.00;99.90
23323;DHT22;11833;52.554;13.554;2024-02-15T09:10:46;11.00;99.90
23323;DHT22;11833;52.554;13.554;2024-02-15T09:13:13;10.90;99.90
23323;DHT22;11833;52.554;13.554;2024-02-15T09:15:40;10.90;99.90
23323;DHT22;11833;52.554;13.554;2024-02-15T09:18:07;10.80;99.90
23323;DHT22;11833;52.554;13.554;2024-02-15T09:20:35;10.90;99.90
23323;DHT22;11833;52.554;13.554;2024-02-15T09:23:03;11.00;99.90
23323;DHT22;11833;52.554;13.554;2024-02-15T09:25:36;10.90;99.90
23323;DHT22;11833;52.554;13.554;2024-02-15T09:28:03;11.00;99.90
23323;DHT22;11833;52.554;13.554;2024-02-15T09:30:29;11.00;99.90
23323;DHT22;11833;52.554;13.554;2024-02-15T09:32:57;11.10;99.90
23323;DHT22;11833;52.554;13.554;2024-02-15T09:35:23;11.10;99.90
23323;DHT22;11833;52.554;13.554;2024-02-15T09:37:49;11.20;99.90
23323;DHT22;11833;52.554;13.554;2024-02-15T09:40:16;11.40;99.90
23323;DHT22;11833;52.554;13.554;2024-02-15T09:42:44;11.50;99.90
23323;DHT22;11833;52.554;13.554;2024-02-15T09:45:11;11.50;99.90
23323;DHT22;11833;52.554;13.554;2024-02-15T09:47:42;11.60;99.90
23323;DHT22;11833;52.554;13.554;2024-02-15T09:50:09;11.70;99.90
23323;DHT22;11833;52.554;13.554;2024-02-15T09:52:40;11.70;99.90
23323;DHT22;11833;52.554;13.554;2024-02-15T09:55:09;11.60;99.90
23323;DHT22;11833;52.554;13.554;2024-02-15T09:57:42;11.60;99.90
23323;DHT22;11833;52.554;13.554;2024-02-15T10:00:10;11.50;99.90
23323;DHT22;11833;52.554;13.554;2024-02-15T10:02:41;11.50;99.90
23323;DHT22;11833;52.554;13.554;2024-02-15T10:05:10;11.30;99.90
23323;DHT22;11833;52.554;13.554;2024-02-15T10:07:43;11.30;99.90
23323;DHT22;11833;52.554;13.554;2024-02-15T10:10:25;11.30;99.90
23323;DHT22;11833;52.554;13.554;2024-02-15T10:12:55;11.30;99.90
23323;DHT22;11833;52.554;13.554;2024-02-15T10:15:34;11.30;99.90
23323;DHT22;11833;52.554;13.554;2024-02-15T10:18:03;11.20;99.90
23323;DHT22;11833;52.554;13.554;2024-02-15T10:20:30;11.20;99.90
23323;DHT22;11833;52.554;13.554;2024-02-15T10:25:27;11.30;99.90
23323;DHT22;11833;52.554;13.554;2024-02-15T10:28:05;11.40;99.90
23323;DHT22;11833;52.554;13.554;2024-02-15T10:30:43;11.50;99.90
23323;DHT22;11833;52.554;13.554;2024-02-15T10:33:17;11.50;99.90
23323;DHT22;11833;52.554;13.554;2024-02-15T10:36:08;11.60;99.90
23323;DHT22;11833;52.554;13.554;2024-02-15T10:38:35;11.60;99.90
23323;DHT22;11833;52.554;13.554;2024-02-15T10:41:05;11.70;99.90
23323;DHT22;11833;52.554;13.554;2024-02-15T10:43:33;11.80;99.90
23323;DHT22;11833;52.554;13.554;2024-02-15T10:46:00;11.80;99.90
23323;DHT22;11833;52.554;13.554;2024-02-15T10:48:26;11.80;99.90
23323;DHT22;11833;52.554;13.554;2024-02-15T10:50:59;11.70;99.90
23323;DHT22;11833;52.554;13.554;2024-02-15T10:53:30;11.70;99.90
23323;DHT22;11833;52.554;13.554;2024-02-15T10:56:09;11.70;99.90
23323;DHT22;11833;52.554;13.554;2024-02-15T10:58:59;11.70;99.90
23323;DHT22;11833;52.554;13.554;2024-02-15T11:01:32;11.70;99.90
23323;DHT22;11833;52.554;13.554;2024-02-15T11:04:00;11.70;99.90
23323;DHT22;11833;52.554;13.554;2024-02-15T11:06:35;11.80;99.90
23323;DHT22;11833;52.554;13.554;2024-02-15T11:09:08;11.90;99.90
23323;DHT22;11833;52.554;13.554;2024-02-15T11:11:37;11.80;99.90
23323;DHT22;11833;52.554;13.554;2024-02-15T11:14:23;11.80;99.90
23323;DHT22;11833;52.554;13.554;2024-02-15T11:16:56;11.90;99.90
23323;DHT22;11833;52.554;13.554;2024-02-15T11:22:00;12.10;99.90
23323;DHT22;11833;52.554;13.554;2024-02-15T11:24:31;12.20;99.90
23323;DHT22;11833;52.554;13.554;2024-02-15T11:27:05;12.20;99.90
23323;DHT22;11833;52.554;13.554;2024-02-15T11:32:41;12.30;99.90
23323;DHT22;11833;52.554;13.554;2024-02-15T11:35:15;12.30;99.90
23323;DHT22;11833;52.554;13.554;2024-02-15T11:40:22;12.30;99.90
23323;DHT22;11833;52.554;13.554;2024-02-15T11:42:52;12.20;99.90
23323;DHT22;11833;52.554;13.554;2024-02-15T11:45:19;12.20;99.90
23323;DHT22;11833;52.554;13.554;2024-02-15T11:47:49;12.20;99.90
23323;DHT22;11833;52.554;13.554;2024-02-15T11:50:18;12.20;99.90
23323;DHT22;11833;52.554;13.554;2024-02-15T11:52:46;12.20;99.90
23323;DHT22;11833;52.554;13.554;2024-02-15T11:55:19;12.20;99.90
23323;DHT22;11833;52.554;13.554;2024-02-15T11:57:59;12.30;99.90
23323;DHT22;11833;52.554;13.554;2024-02-15T12:00:36;12.30;99.90
23323;DHT22;11833;52.554;13.554;2024-02-15T12:03:21;12.40;99.90
23323;DHT22;11833;52.554;13.554;2024-02-15T12:06:07;12.40;99.90
23323;DHT22;11833;52.554;13.554;2024-02-15T12:08:52;12.40;99.90
23323;DHT22;11833;52.554;13.554;2024-02-15T12:11:41;12.50;99.90
23323;DHT22;11833;52.554;13.554;2024-02-15T12:14:28;12.40;99.90
23323;DHT22;11833;52.554;13.554;2024-02-15T12:17:13;12.30;99.90
23323;DHT22;11833;52.554;13.554;2024-02-15T12:20:00;12.30;99.90
23323;DHT22;11833;52.554;13.554;2024-02-15T12:22:47;12.30;99.90
23323;DHT22;11833;52.554;13.554;2024-02-15T12:25:15;12.20;99.90
23323;DHT22;11833;52.554;13.554;2024-02-15T12:27:42;12.20;99.90
23323;DHT22;11833;52.554;13.554;2024-02-15T12:30:16;12.20;99.90
23323;DHT22;11833;52.554;13.554;2024-02-15T12:32:47;12.20;99.90
23323;DHT22;11833;52.554;13.554;2024-02-15T12:35:20;12.10;99.90
23323;DHT22;11833;52.554;13.554;2024-02-15T12:38:09;12.20;99.90
23323;DHT22;11833;52.554;13.554;2024-02-15T12:40:36;12.20;99.90
23323;DHT22;11833;52.554;13.554;2024-02-15T12:43:05;12.20;99.90
23323;DHT22;11833;52.554;13.554;2024-02-15T12:45:32;12.20;99.90
23323;DHT22;11833;52.554;13.554;2024-02-15T12:48:03;12.20;99.90
23323;DHT22;11833;52.554;13.554;2024-02-15T12:50:31;12.30;99.90
23323;DHT22;11833;52.554;13.554;2024-02-15T12:52:58;12.30;99.90
23323;DHT22;11833;52.554;13.554;2024-02-15T12:55:35;12.30;99.90
23323;DHT22;11833;52.554;13.554;2024-02-15T12:58:07;12.30;99.90
23323;DHT22;11833;52.554;13.554;2024-02-15T13:00:40;12.40;99.90
23323;DHT22;11833;52.554;13.554;2024-02-15T13:03:07;12.40;99.90
23323;DHT22;11833;52.554;13.554;2024-02-15T13:05:37;12.50;99.90
23323;DHT22;11833;52.554;13.554;2024-02-15T13:08:03;12.50;99.90
23323;DHT22;11833;52.554;13.554;2024-02-15T13:10:36;12.60;99.90
23323;DHT22;11833;52.554;13.554;2024-02-15T13:13:04;12.60;99.90
23323;DHT22;11833;52.554;13.554;2024-02-15T13:15:31;12.60;99.90
23323;DHT22;11833;52.554;13.554;2024-02-15T13:18:00;12.60;99.90
23323;DHT22;11833;52.554;13.554;2024-02-15T13:20:26;12.60;99.90
23323;DHT22;11833;52.554;13.554;2024-02-15T13:23:01;12.60;99.90
23323;DHT22;11833;52.554;13.554;2024-02-15T13:25:36;12.60;99.90
23323;DHT22;11833;52.554;13.554;2024-02-15T13:28:05;12.60;99.90
23323;DHT22;11833;52.554;13.554;2024-02-15T13:30:32;12.60;99.90
23323;DHT22;11833;52.554;13.554;2024-02-15T13:32:58;12.60;99.90
23323;DHT22;11833;52.554;13.554;2024-02-15T13:35:24;12.50;99.90
23323;DHT22;11833;52.554;13.554;2024-02-15T13:37:50;12.60;99.90
23323;DHT22;11833;52.554;13.554;2024-02-15T13:40:21;12.60;99.90
23323;DHT22;11833;52.554;13.554;2024-02-15T13:42:50;12.60;99.90
23323;DHT22;11833;52.554;13.554;2024-02-15T13:45:22;12.60;99.90
23323;DHT22;11833;52.554;13.554;2024-02-15T13:47:50;12.60;99.90
23323;DHT22;11833;52.554;13.554;2024-02-15T13:50:17;12.60;99.90
23323;DHT22;11833;52.554;13.554;2024-02-15T13:52:44;12.60;99.90
23323;DHT22;11833;52.554;13.554;2024-02-15T13:55:14;12.60;99.90
23323;DHT22;11833;52.554;13.554;2024-02-15T13:57:43;12.60;99.90
23323;DHT22;11833;52.554;13.554;2024-02-15T14:00:12;12.60;99.90
23323;DHT22;11833;52.554;13.554;2024-02-15T14:02:43;12.70;99.90
23323;DHT22;11833;52.554;13.554;2024-02-15T14:05:09;12.70;99.90
23323;DHT22;11833;52.554;13.554;2024-02-15T14:07:37;12.60;99.90
23323;DHT22;11833;52.554;13.554;2024-02-15T14:10:07;12.70;99.90
23323;DHT22;11833;52.554;13.554;2024-02-15T14:12:33;12.70;99.90
23323;DHT22;11833;52.554;13.554;2024-02-15T14:15:00;12.70;99.90
23323;DHT22;11833;52.554;13.554;2024-02-15T14:17:26;12.70;99.90
23323;DHT22;11833;52.554;13.554;2024-02-15T14:19:53;12.60;99.90
23323;DHT22;11833;52.554;13.554;2024-02-15T14:22:19;12.60;99.90
23323;DHT22;11833;52.554;13.554;2024-02-15T14:24:49;12.60;99.90
23323;DHT22;11833;52.554;13.554;2024-02-15T14:27:15;12.60;99.90
23323;DHT22;11833;52.554;13.554;2024-02-15T14:29:41;12.60;99.90
23323;DHT22;11833;52.554;13.554;2024-02-15T14:32:29;12.60;99.90
23323;DHT22;11833;52.554;13.554;2024-02-15T14:35:14;12.60;99.90
23323;DHT22;11833;52.554;13.554;2024-02-15T14:37:39;12.50;99.90
23323;DHT22;11833;52.554;13.554;2024-02-15T14:40:06;12.50;99.90
23323;DHT22;11833;52.554;13.554;2024-02-15T14:42:32;12.50;99.90
23323;DHT22;11833;52.554;13.554;2024-02-15T14:44:59;12.50;99.90
23323;DHT22;11833;52.554;13.554;2024-02-15T14:47:25;12.50;99.90
23323;DHT22;11833;52.554;13.554;2024-02-15T14:49:51;12.50;99.90
23323;DHT22;11833;52.554;13.554;2024-02-15T14:52:17;12.40;99.90
23323;DHT22;11833;52.554;13.554;2024-02-15T14:54:43;12.40;99.90
23323;DHT22;11833;52.554;13.554;2024-02-15T14:57:09;12.40;99.90
23323;DHT22;11833;52.554;13.554;2024-02-15T14:59:34;12.40;99.90
23323;DHT22;11833;52.554;13.554;2024-02-15T15:02:01;12.40;99.90
23323;DHT22;11833;52.554;13.554;2024-02-15T15:04:34;12.40;99.90
23323;DHT22;11833;52.554;13.554;2024-02-15T15:07:20;12.40;99.90
23323;DHT22;11833;52.554;13.554;2024-02-15T15:10:04;12.40;99.90
23323;DHT22;11833;52.554;13.554;2024-02-15T15:12:49;12.40;99.90
23323;DHT22;11833;52.554;13.554;2024-02-15T15:15:16;12.40;99.90
23323;DHT22;11833;52.554;13.554;2024-02-15T15:17:44;12.30;99.90
23323;DHT22;11833;52.554;13.554;2024-02-15T15:20:12;12.30;99.90
23323;DHT22;11833;52.554;13.554;2024-02-15T15:22:38;12.30;99.90
23323;DHT22;11833;52.554;13.554;2024-02-15T15:25:04;12.30;99.90
23323;DHT22;11833;52.554;13.554;2024-02-15T15:27:30;12.30;99.90
23323;DHT22;11833;52.554;13.554;2024-02-15T15:29:56;12.30;99.90
23323;DHT22;11833;52.554;13.554;2024-02-15T15:32:22;12.30;99.90
23323;DHT22;11833;52.554;13.554;2024-02-15T15:34:48;12.30;99.90
23323;DHT22;11833;52.554;13.554;2024-02-15T15:37:14;12.30;99.90
23323;DHT22;11833;52.554;13.554;2024-02-15T15:39:41;12.30;99.90
23323;DHT22;11833;52.554;13.554;2024-02-15T15:42:07;12.20;99.90
23323;DHT22;11833;52.554;13.554;2024-02-15T15:44:33;12.20;99.90
23323;DHT22;11833;52.554;13.554;2024-02-15T15:46:59;12.20;99.90
23323;DHT22;11833;52.554;13.554;2024-02-15T15:49:26;12.20;99.90